sensor_id;sensor_type;location;lat;lon;timestamp;temperature;humidity
42201;DHT22;27869;51.442;7.540;2023-09-30T00:01:39;12.60;99.90
42201;DHT22;27869;51.442;7.540;2023-09-30T00:04:06;12.50;99.90
42201;DHT22;27869;51.442;7.540;2023-09-30T00:06:34;12.50;99.90
42201;DHT22;27869;51.442;7.540;2023-09-30T00:09:01;12.50;99.90
42201;DHT22;27869;51.442;7.540;2023-09-30T00:11:28;12.50;99.90
42201;DHT22;27869;51.442;7.540;2023-09-30T00:13:55;12.50;99.90
42201;DHT22;27869;51.442;7.540;2023-09-30T00:16:23;12.50;99.90
42201;DHT22;27869;51.442;7.540;2023-09-30T00:18:50;12.40;99.90
42201;DHT22;27869;51.442;7.540;2023-09-30T00:21:19;12.40;99.90
42201;DHT22;27869;51.442;7.540;2023-09-30T00:23:45;12.40;99.90
42201;DHT22;27869;51.442;7.540;2023-09-30T00:26:12;12.30;99.90
42201;DHT22;27869;51.442;7.540;2023-09-30T00:28:39;12.30;99.90
42201;DHT22;27869;51.442;7.540;2023-09-30T00:31:07;12.30;99.90
42201;DHT22;27869;51.442;7.540;2023-09-30T00:33:37;12.30;99.90
42201;DHT22;27869;51.442;7.540;2023-09-30T00:36:08;12.20;99.90
42201;DHT22;27869;51.442;7.540;2023-09-30T00:38:35;12.20;99.90
42201;DHT22;27869;51.442;7.540;2023-09-30T00:41:02;12.20;99.90
42201;DHT22;27869;51.442;7.540;2023-09-30T00:43:29;12.20;99.90
42201;DHT22;27869;51.442;7.540;2023-09-30T00:46:02;12.20;99.90
42201;DHT22;27869;51.442;7.540;2023-09-30T00:48:45;12.20;99.90
42201;DHT22;27869;51.442;7.540;2023-09-30T00:51:12;12.20;99.90
42201;DHT22;27869;51.442;7.540;2023-09-30T00:53:39;12.20;99.90
42201;DHT22;27869;51.442;7.540;2023-09-30T00:56:06;12.10;99.90
42201;DHT22;27869;51.442;7.540;2023-09-30T00:58:34;12.10;99.90
42201;DHT22;27869;51.442;7.540;2023-09-30T01:01:02;12.10;99.90
42201;DHT22;27869;51.442;7.540;2023-09-30T01:03:29;12.20;99.90
42201;DHT22;27869;51.442;7.540;2023-09-30T01:05:57;12.10;99.90
42201;DHT22;27869;51.442;7.540;2023-09-30T01:08:25;12.20;99.90
42201;DHT22;27869;51.442;7.540;2023-09-30T01:10:53;12.10;99.90
42201;DHT22;27869;51.442;7.540;2023-09-30T01:13:20;12.10;99.90
42201;DHT22;27869;51.442;7.540;2023-09-30T01:15:47;12.20;99.90
42201;DHT22;27869;51.442;7.540;2023-09-30T01:18:14;12.10;99.90
42201;DHT22;27869;51.442;7.540;2023-09-30T01:20:41;12.10;99.90
42201;DHT22;27869;51.442;7.540;2023-09-30T01:23:09;12.10;99.90
42201;DHT22;27869;51.442;7.540;2023-09-30T01:25:38;12.10;99.90
42201;DHT22;27869;51.442;7.540;2023-09-30T01:28:08;12.10;99.90
42201;DHT22;27869;51.442;7.540;2023-09-30T01:30:35;12.10;99.90
42201;DHT22;27869;51.442;7.540;2023-09-30T01:33:03;12.10;99.90
42201;DHT22;27869;51.442;7.540;2023-09-30T01:35:30;12.10;99.90
42201;DHT22;27869;51.442;7.540;2023-09-30T01:37:56;12.10;99.90
42201;DHT22;27869;51.442;7.540;2023-09-30T01:40:25;12.10;99.90
42201;DHT22;27869;51.442;7.540;2023-09-30T01:42:52;12.10;99.90
42201;DHT22;27869;51.442;7.540;2023-09-30T01:45:19;12.10;99.90
42201;DHT22;27869;51.442;7.540;2023-09-30T01:47:45;12.10;99.90
42201;DHT22;27869;51.442;7.540;2023-09-30T01:50:12;12.00;99.90
42201;DHT22;27869;51.442;7.540;2023-09-30T01:52:39;12.00;99.90
42201;DHT22;27869;51.442;7.540;2023-09-30T01:55:07;12.00;99.90
42201;DHT22;27869;51.442;7.540;2023-09-30T01:57:35;12.00;99.90
42201;DHT22;27869;51.442;7.540;2023-09-30T02:00:03;12.00;99.90
42201;DHT22;27869;51.442;7.540;2023-09-30T02:02:34;12.00;99.90
42201;DHT22;27869;51.442;7.540;2023-09-30T02:05:02;12.00;99.90
42201;DHT22;27869;51.442;7.540;2023-09-30T02:07:29;12.00;99.90
42201;DHT22;27869;51.442;7.540;2023-09-30T02:09:57;12.00;99.90
42201;DHT22;27869;51.442;7.540;2023-09-30T02:12:26;12.00;99.90
42201;DHT22;27869;51.442;7.540;2023-09-30T02:14:54;12.00;99.90
42201;DHT22;27869;51.442;7.540;2023-09-30T02:17:21;12.00;99.90
42201;DHT22;27869;51.442;7.540;2023-09-30T02:19:48;12.10;99.90
42201;DHT22;27869;51.442;7.540;2023-09-30T02:22:15;12.10;99.90
42201;DHT22;27869;51.442;7.540;2023-09-30T02:24:42;12.10;99.90
42201;DHT22;27869;51.442;7.540;2023-09-30T02:27:09;12.00;99.90
42201;DHT22;27869;51.442;7.540;2023-09-30T02:29:36;12.00;99.90
42201;DHT22;27869;51.442;7.540;2023-09-30T02:32:04;12.00;99.90
42201;DHT22;27869;51.442;7.540;2023-09-30T02:34:31;12.00;99.90
42201;DHT22;27869;51.442;7.540;2023-09-30T02:36:58;12.00;99.90
42201;DHT22;27869;51.442;7.540;2023-09-30T02:39:25;12.00;99.90
42201;DHT22;27869;51.442;7.540;2023-09-30T02:41:53;12.00;99.90
42201;DHT22;27869;51.442;7.540;2023-09-30T02:44:19;12.00;99.90
42201;DHT22;27869;51.442;7.540;2023-09-30T02:46:46;12.00;99.90
42201;DHT22;27869;51.442;7.540;2023-09-30T02:49:14;12.00;99.90
42201;DHT22;27869;51.442;7.540;2023-09-30T02:51:41;12.00;99.90
42201;DHT22;27869;51.442;7.540;2023-09-30T02:54:08;12.00;99.90
42201;DHT22;27869;51.442;7.540;2023-09-30T02:56:35;12.00;99.90
42201;DHT22;27869;51.442;7.540;2023-09-30T02:59:02;12.00;99.90
42201;DHT22;27869;51.442;7.540;2023-09-30T03:01:29;12.00;99.90
42201;DHT22;27869;51.442;7.540;2023-09-30T03:03:55;11.90;99.90
42201;DHT22;27869;51.442;7.540;2023-09-30T03:06:24;11.90;99.90
42201;DHT22;27869;51.442;7.540;2023-09-30T03:08:51;11.90;99.90
42201;DHT22;27869;51.442;7.540;2023-09-30T03:11:18;11.90;99.90
42201;DHT22;27869;51.442;7.540;2023-09-30T03:13:45;11.90;99.90
42201;DHT22;27869;51.442;7.540;2023-09-30T03:16:13;11.90;99.90
42201;DHT22;27869;51.442;7.540;2023-09-30T03:18:40;11.90;99.90
42201;DHT22;27869;51.442;7.540;2023-09-30T03:21:15;11.90;99.90
42201;DHT22;27869;51.442;7.540;2023-09-30T03:23:43;11.80;99.90
42201;DHT22;27869;51.442;7.540;2023-09-30T03:26:10;11.80;99.90
42201;DHT22;27869;51.442;7.540;2023-09-30T03:28:37;11.80;99.90
42201;DHT22;27869;51.442;7.540;2023-09-30T03:31:04;11.80;99.90
42201;DHT22;27869;51.442;7.540;2023-09-30T03:33:31;11.80;99.90
42201;DHT22;27869;51.442;7.540;2023-09-30T03:35:59;11.80;99.90
42201;DHT22;27869;51.442;7.540;2023-09-30T03:38:26;11.80;99.90
42201;DHT22;27869;51.442;7.540;2023-09-30T03:40:54;11.70;99.90
42201;DHT22;27869;51.442;7.540;2023-09-30T03:43:23;11.70;99.90
42201;DHT22;27869;51.442;7.540;2023-09-30T03:45:50;11.80;99.90
42201;DHT22;27869;51.442;7.540;2023-09-30T03:48:19;11.70;99.90
42201;DHT22;27869;51.442;7.540;2023-09-30T03:50:46;11.70;99.90
42201;DHT22;27869;51.442;7.540;2023-09-30T03:53:14;11.70;99.90
42201;DHT22;27869;51.442;7.540;2023-09-30T03:55:40;11.70;99.90
42201;DHT22;27869;51.442;7.540;2023-09-30T03:58:09;11.70;99.90
42201;DHT22;27869;51.442;7.540;2023-09-30T04:00:35;11.60;99.90
42201;DHT22;27869;51.442;7.540;2023-09-30T04:03:03;11.60;99.90
42201;DHT22;27869;51.442;7.540;2023-09-30T04:05:30;11.60;99.90
42201;DHT22;27869;51.442;7.540;2023-09-30T04:08:02;11.60;99.90
42201;DHT22;27869;51.442;7.540;2023-09-30T04:10:28;11.60;99.90
42201;DHT22;27869;51.442;7.540;2023-09-30T04:12:56;11.60;99.90
42201;DHT22;27869;51.442;7.540;2023-09-30T04:15:24;11.60;99.90
42201;DHT22;27869;51.442;7.540;2023-09-30T04:17:51;11.60;99.90
42201;DHT22;27869;51.442;7.540;2023-09-30T04:20:18;11.50;99.90
42201;DHT22;27869;51.442;7.540;2023-09-30T04:22:48;11.50;99.90
42201;DHT22;27869;51.442;7.540;2023-09-30T04:25:16;11.50;99.90
42201;DHT22;27869;51.442;7.540;2023-09-30T04:27:43;11.50;99.90
42201;DHT22;27869;51.442;7.540;2023-09-30T04:30:11;11.50;99.90
42201;DHT22;27869;51.442;7.540;2023-09-30T04:32:42;11.50;99.90
42201;DHT22;27869;51.442;7.540;2023-09-30T04:35:11;11.50;99.90
42201;DHT22;27869;51.442;7.540;2023-09-30T04:37:38;11.50;99.90
42201;DHT22;27869;51.442;7.540;2023-09-30T04:40:06;11.40;99.90
42201;DHT22;27869;51.442;7.540;2023-09-30T04:42:41;11.40;99.90
42201;DHT22;27869;51.442;7.540;2023-09-30T04:45:09;11.40;99.90
42201;DHT22;27869;51.442;7.540;2023-09-30T04:47:36;11.40;99.90
42201;DHT22;27869;51.442;7.540;2023-09-30T04:50:07;11.40;99.90
42201;DHT22;27869;51.442;7.540;2023-09-30T04:52:34;11.40;99.90
42201;DHT22;27869;51.442;7.540;2023-09-30T04:55:01;11.40;99.90
42201;DHT22;27869;51.442;7.540;2023-09-30T04:57:30;11.40;99.90
42201;DHT22;27869;51.442;7.540;2023-09-30T04:59:57;11.30;99.90
42201;DHT22;27869;51.442;7.540;2023-09-30T05:02:24;11.30;99.90
42201;DHT22;27869;51.442;7.540;2023-09-30T05:04:51;11.30;99.90
42201;DHT22;27869;51.442;7.540;2023-09-30T05:07:20;11.30;99.90
42201;DHT22;27869;51.442;7.540;2023-09-30T05:09:48;11.30;99.90
42201;DHT22;27869;51.442;7.540;2023-09-30T05:12:15;11.20;99.90
42201;DHT22;27869;51.442;7.540;2023-09-30T05:14:42;11.30;99.90
42201;DHT22;27869;51.442;7.540;2023-09-30T05:17:09;11.20;99.90
42201;DHT22;27869;51.442;7.540;2023-09-30T05:19:36;11.20;99.90
42201;DHT22;27869;51.442;7.540;2023-09-30T05:22:03;11.20;99.90
42201;DHT22;27869;51.442;7.540;2023-09-30T05:24:32;11.20;99.90
42201;DHT22;27869;51.442;7.540;2023-09-30T05:27:00;11.10;99.90
42201;DHT22;27869;51.442;7.540;2023-09-30T05:29:27;11.10;99.90
42201;DHT22;27869;51.442;7.540;2023-09-30T05:31:54;11.10;99.90
42201;DHT22;27869;51.442;7.540;2023-09-30T05:34:21;11.00;99.90
42201;DHT22;27869;51.442;7.540;2023-09-30T05:36:48;11.00;99.90
42201;DHT22;27869;51.442;7.540;2023-09-30T05:39:17;11.00;99.90
42201;DHT22;27869;51.442;7.540;2023-09-30T05:41:47;11.00;99.90
42201;DHT22;27869;51.442;7.540;2023-09-30T05:44:13;11.00;99.90
42201;DHT22;27869;51.442;7.540;2023-09-30T05:46:40;11.00;99.90
42201;DHT22;27869;51.442;7.540;2023-09-30T05:49:08;11.00;99.90
42201;DHT22;27869;51.442;7.540;2023-09-30T05:51:39;11.00;99.90
42201;DHT22;27869;51.442;7.540;2023-09-30T05:54:06;10.90;99.90
42201;DHT22;27869;51.442;7.540;2023-09-30T05:56:35;10.90;99.90
42201;DHT22;27869;51.442;7.540;2023-09-30T05:59:04;10.90;99.90
42201;DHT22;27869;51.442;7.540;2023-09-30T06:01:32;10.90;99.90
42201;DHT22;27869;51.442;7.540;2023-09-30T06:04:02;10.90;99.90
42201;DHT22;27869;51.442;7.540;2023-09-30T06:06:30;10.90;99.90
42201;DHT22;27869;51.442;7.540;2023-09-30T06:08:57;10.90;99.90
42201;DHT22;27869;51.442;7.540;2023-09-30T06:11:25;10.90;99.90
42201;DHT22;27869;51.442;7.540;2023-09-30T06:13:54;11.00;99.90
42201;DHT22;27869;51.442;7.540;2023-09-30T06:16:22;11.00;99.90
42201;DHT22;27869;51.442;7.540;2023-09-30T06:18:51;11.00;99.90
42201;DHT22;27869;51.442;7.540;2023-09-30T06:21:18;11.00;99.90
42201;DHT22;27869;51.442;7.540;2023-09-30T06:23:46;11.00;99.90
42201;DHT22;27869;51.442;7.540;2023-09-30T06:26:14;11.00;99.90
42201;DHT22;27869;51.442;7.540;2023-09-30T06:28:42;11.00;99.90
42201;DHT22;27869;51.442;7.540;2023-09-30T06:31:09;11.10;99.90
42201;DHT22;27869;51.442;7.540;2023-09-30T06:33:38;11.10;99.90
42201;DHT22;27869;51.442;7.540;2023-09-30T06:36:08;11.10;99.90
42201;DHT22;27869;51.442;7.540;2023-09-30T06:38:36;11.20;99.90
42201;DHT22;27869;51.442;7.540;2023-09-30T06:41:04;11.20;99.90
42201;DHT22;27869;51.442;7.540;2023-09-30T06:43:30;11.20;99.90
42201;DHT22;27869;51.442;7.540;2023-09-30T06:45:58;11.30;99.90
42201;DHT22;27869;51.442;7.540;2023-09-30T06:48:25;11.30;99.90
42201;DHT22;27869;51.442;7.540;2023-09-30T06:50:54;11.40;99.90
42201;DHT22;27869;51.442;7.540;2023-09-30T06:53:20;11.40;99.90
42201;DHT22;27869;51.442;7.540;2023-09-30T06:55:49;11.50;99.90
42201;DHT22;27869;51.442;7.540;2023-09-30T06:58:17;11.60;99.90
42201;DHT22;27869;51.442;7.540;2023-09-30T07:00:47;11.60;99.90
42201;DHT22;27869;51.442;7.540;2023-09-30T07:03:15;11.70;99.90
42201;DHT22;27869;51.442;7.540;2023-09-30T07:05:42;11.70;99.90
42201;DHT22;27869;51.442;7.540;2023-09-30T07:08:11;11.80;99.90
42201;DHT22;27869;51.442;7.540;2023-09-30T07:10:41;11.90;99.90
42201;DHT22;27869;51.442;7.540;2023-09-30T07:13:08;11.90;99.90
42201;DHT22;27869;51.442;7.540;2023-09-30T07:15:35;12.00;99.90
42201;DHT22;27869;51.442;7.540;2023-09-30T07:18:02;12.00;99.90
42201;DHT22;27869;51.442;7.540;2023-09-30T07:20:29;12.10;99.90
42201;DHT22;27869;51.442;7.540;2023-09-30T07:22:58;12.20;99.90
42201;DHT22;27869;51.442;7.540;2023-09-30T07:25:26;12.20;99.90
42201;DHT22;27869;51.442;7.540;2023-09-30T07:27:53;12.30;99.90
42201;DHT22;27869;51.442;7.540;2023-09-30T07:30:20;12.40;99.90
42201;DHT22;27869;51.442;7.540;2023-09-30T07:32:47;12.40;99.90
42201;DHT22;27869;51.442;7.540;2023-09-30T07:35:14;12.50;99.90
42201;DHT22;27869;51.442;7.540;2023-09-30T07:37:41;12.60;99.90
42201;DHT22;27869;51.442;7.540;2023-09-30T07:40:09;12.60;99.90
42201;DHT22;27869;51.442;7.540;2023-09-30T07:42:37;12.70;99.90
42201;DHT22;27869;51.442;7.540;2023-09-30T07:45:05;12.80;99.90
42201;DHT22;27869;51.442;7.540;2023-09-30T07:47:32;12.90;99.90
42201;DHT22;27869;51.442;7.540;2023-09-30T07:49:59;13.00;99.90
42201;DHT22;27869;51.442;7.540;2023-09-30T07:52:25;13.10;99.90
42201;DHT22;27869;51.442;7.540;2023-09-30T07:54:52;13.20;99.90
42201;DHT22;27869;51.442;7.540;2023-09-30T07:57:19;13.30;99.90
42201;DHT22;27869;51.442;7.540;2023-09-30T07:59:48;13.40;99.90
42201;DHT22;27869;51.442;7.540;2023-09-30T08:02:15;13.50;99.90
42201;DHT22;27869;51.442;7.540;2023-09-30T08:04:43;13.60;99.90
42201;DHT22;27869;51.442;7.540;2023-09-30T08:07:10;13.70;99.90
42201;DHT22;27869;51.442;7.540;2023-09-30T08:09:37;13.80;99.90
42201;DHT22;27869;51.442;7.540;2023-09-30T08:12:04;13.90;99.90
42201;DHT22;27869;51.442;7.540;2023-09-30T08:14:32;14.00;99.90
42201;DHT22;27869;51.442;7.540;2023-09-30T08:17:00;14.10;99.90
42201;DHT22;27869;51.442;7.540;2023-09-30T08:19:28;14.20;99.90
42201;DHT22;27869;51.442;7.540;2023-09-30T08:21:55;14.30;99.90
42201;DHT22;27869;51.442;7.540;2023-09-30T08:24:21;14.40;99.90
42201;DHT22;27869;51.442;7.540;2023-09-30T08:26:48;14.60;99.90
42201;DHT22;27869;51.442;7.540;2023-09-30T08:29:17;14.60;99.90
42201;DHT22;27869;51.442;7.540;2023-09-30T08:31:43;14.80;99.90
42201;DHT22;27869;51.442;7.540;2023-09-30T08:34:12;14.90;99.90
42201;DHT22;27869;51.442;7.540;2023-09-30T08:36:40;15.00;99.90
42201;DHT22;27869;51.442;7.540;2023-09-30T08:39:07;15.10;99.90
42201;DHT22;27869;51.442;7.540;2023-09-30T08:41:36;15.20;99.90
42201;DHT22;27869;51.442;7.540;2023-09-30T08:44:04;15.30;99.90
42201;DHT22;27869;51.442;7.540;2023-09-30T08:46:32;15.40;99.90
42201;DHT22;27869;51.442;7.540;2023-09-30T08:49:01;15.40;99.90
42201;DHT22;27869;51.442;7.540;2023-09-30T08:51:31;15.50;99.90
42201;DHT22;27869;51.442;7.540;2023-09-30T08:53:59;15.60;99.90
42201;DHT22;27869;51.442;7.540;2023-09-30T08:56:28;15.70;99.90
42201;DHT22;27869;51.442;7.540;2023-09-30T08:58:57;15.80;99.90
42201;DHT22;27869;51.442;7.540;2023-09-30T09:01:25;15.90;99.90
42201;DHT22;27869;51.442;7.540;2023-09-30T09:03:52;16.00;99.90
42201;DHT22;27869;51.442;7.540;2023-09-30T09:06:20;16.20;99.90
42201;DHT22;27869;51.442;7.540;2023-09-30T09:08:48;16.20;99.90
42201;DHT22;27869;51.442;7.540;2023-09-30T09:11:17;16.30;99.90
42201;DHT22;27869;51.442;7.540;2023-09-30T09:13:48;16.50;99.90
42201;DHT22;27869;51.442;7.540;2023-09-30T09:16:16;16.50;99.90
42201;DHT22;27869;51.442;7.540;2023-09-30T09:18:44;16.70;99.90
42201;DHT22;27869;51.442;7.540;2023-09-30T09:21:14;16.80;99.90
42201;DHT22;27869;51.442;7.540;2023-09-30T09:23:46;16.90;99.90
42201;DHT22;27869;51.442;7.540;2023-09-30T09:26:24;17.00;99.90
42201;DHT22;27869;51.442;7.540;2023-09-30T09:28:56;17.10;99.90
42201;DHT22;27869;51.442;7.540;2023-09-30T09:31:25;17.30;99.90
42201;DHT22;27869;51.442;7.540;2023-09-30T09:33:52;17.30;99.90
42201;DHT22;27869;51.442;7.540;2023-09-30T09:36:20;17.40;99.90
42201;DHT22;27869;51.442;7.540;2023-09-30T09:38:49;17.50;99.90
42201;DHT22;27869;51.442;7.540;2023-09-30T09:41:20;17.50;99.90
42201;DHT22;27869;51.442;7.540;2023-09-30T09:43:49;17.50;99.90
42201;DHT22;27869;51.442;7.540;2023-09-30T09:46:17;17.50;99.90
42201;DHT22;27869;51.442;7.540;2023-09-30T09:48:46;17.40;99.90
42201;DHT22;27869;51.442;7.540;2023-09-30T09:51:13;17.40;99.90
42201;DHT22;27869;51.442;7.540;2023-09-30T09:53:41;17.40;99.90
42201;DHT22;27869;51.442;7.540;2023-09-30T09:56:09;17.30;99.90
42201;DHT22;27869;51.442;7.540;2023-09-30T09:58:40;17.30;99.90
42201;DHT22;27869;51.442;7.540;2023-09-30T10:01:09;17.30;99.90
42201;DHT22;27869;51.442;7.540;2023-09-30T10:03:37;17.30;99.90
42201;DHT22;27869;51.442;7.540;2023-09-30T10:06:05;17.30;99.90
42201;DHT22;27869;51.442;7.540;2023-09-30T10:08:35;17.30;99.90
42201;DHT22;27869;51.442;7.540;2023-09-30T10:11:03;17.30;99.90
42201;DHT22;27869;51.442;7.540;2023-09-30T10:13:54;17.30;99.90
42201;DHT22;27869;51.442;7.540;2023-09-30T10:16:47;17.40;99.90
42201;DHT22;27869;51.442;7.540;2023-09-30T10:19:16;17.40;99.90
42201;DHT22;27869;51.442;7.540;2023-09-30T10:24:29;17.50;99.90
42201;DHT22;27869;51.442;7.540;2023-09-30T10:27:32;17.60;99.90
42201;DHT22;27869;51.442;7.540;2023-09-30T10:30:07;17.70;99.90
42201;DHT22;27869;51.442;7.540;2023-09-30T10:33:13;17.90;99.90
42201;DHT22;27869;51.442;7.540;2023-09-30T10:35:45;18.00;99.90
42201;DHT22;27869;51.442;7.540;2023-09-30T10:38:37;18.20;99.90
42201;DHT22;27869;51.442;7.540;2023-09-30T10:41:07;18.30;99.90
42201;DHT22;27869;51.442;7.540;2023-09-30T10:43:36;18.50;99.90
42201;DHT22;27869;51.442;7.540;2023-09-30T10:46:30;18.50;99.90
42201;DHT22;27869;51.442;7.540;2023-09-30T10:49:17;18.60;99.90
42201;DHT22;27869;51.442;7.540;2023-09-30T10:51:57;18.70;99.90
42201;DHT22;27869;51.442;7.540;2023-09-30T10:54:26;18.70;99.90
42201;DHT22;27869;51.442;7.540;2023-09-30T10:56:54;18.80;99.90
42201;DHT22;27869;51.442;7.540;2023-09-30T10:59:22;18.90;99.90
42201;DHT22;27869;51.442;7.540;2023-09-30T11:01:51;19.00;99.90
42201;DHT22;27869;51.442;7.540;2023-09-30T11:04:19;19.10;99.90
42201;DHT22;27869;51.442;7.540;2023-09-30T11:06:47;19.30;99.90
42201;DHT22;27869;51.442;7.540;2023-09-30T11:09:18;19.30;99.90
42201;DHT22;27869;51.442;7.540;2023-09-30T11:11:47;19.40;99.90
42201;DHT22;27869;51.442;7.540;2023-09-30T11:14:19;19.40;99.90
42201;DHT22;27869;51.442;7.540;2023-09-30T11:16:46;19.30;99.90
42201;DHT22;27869;51.442;7.540;2023-09-30T11:19:15;19.20;99.90
42201;DHT22;27869;51.442;7.540;2023-09-30T11:21:43;19.20;99.90
42201;DHT22;27869;51.442;7.540;2023-09-30T11:24:09;19.20;99.90
42201;DHT22;27869;51.442;7.540;2023-09-30T11:26:37;19.30;99.90
42201;DHT22;27869;51.442;7.540;2023-09-30T11:29:08;19.30;99.90
42201;DHT22;27869;51.442;7.540;2023-09-30T11:31:37;19.20;99.90
42201;DHT22;27869;51.442;7.540;2023-09-30T11:34:04;19.20;99.90
42201;DHT22;27869;51.442;7.540;2023-09-30T11:36:36;19.20;99.90
42201;DHT22;27869;51.442;7.540;2023-09-30T11:39:04;19.20;99.90
42201;DHT22;27869;51.442;7.540;2023-09-30T11:41:35;19.30;99.90
42201;DHT22;27869;51.442;7.540;2023-09-30T11:44:05;19.30;99.90
42201;DHT22;27869;51.442;7.540;2023-09-30T11:46:48;19.40;99.90
42201;DHT22;27869;51.442;7.540;2023-09-30T11:49:27;19.40;99.90
42201;DHT22;27869;51.442;7.540;2023-09-30T11:51:56;19.40;99.90
42201;DHT22;27869;51.442;7.540;2023-09-30T11:54:29;19.40;99.90
42201;DHT22;27869;51.442;7.540;2023-09-30T11:56:56;19.30;99.90
42201;DHT22;27869;51.442;7.540;2023-09-30T11:59:24;19.40;99.90
42201;DHT22;27869;51.442;7.540;2023-09-30T12:01:51;19.40;99.90
42201;DHT22;27869;51.442;7.540;2023-09-30T12:04:19;19.40;99.90
42201;DHT22;27869;51.442;7.540;2023-09-30T12:06:45;19.30;99.90
42201;DHT22;27869;51.442;7.540;2023-09-30T12:09:15;19.30;99.90
42201;DHT22;27869;51.442;7.540;2023-09-30T12:11:42;19.30;99.90
42201;DHT22;27869;51.442;7.540;2023-09-30T12:14:11;19.20;99.90
42201;DHT22;27869;51.442;7.540;2023-09-30T12:16:38;19.20;99.90
42201;DHT22;27869;51.442;7.540;2023-09-30T12:19:05;19.10;99.90
42201;DHT22;27869;51.442;7.540;2023-09-30T12:21:32;19.10;99.90
42201;DHT22;27869;51.442;7.540;2023-09-30T12:23:59;19.10;99.90
42201;DHT22;27869;51.442;7.540;2023-09-30T12:26:29;19.10;99.90
42201;DHT22;27869;51.442;7.540;2023-09-30T12:28:56;19.20;99.90
42201;DHT22;27869;51.442;7.540;2023-09-30T12:31:23;19.20;99.90
42201;DHT22;27869;51.442;7.540;2023-09-30T12:33:50;19.20;99.90
42201;DHT22;27869;51.442;7.540;2023-09-30T12:36:18;19.10;99.90
42201;DHT22;27869;51.442;7.540;2023-09-30T12:38:45;19.10;99.90
42201;DHT22;27869;51.442;7.540;2023-09-30T12:41:12;19.10;99.90
42201;DHT22;27869;51.442;7.540;2023-09-30T12:43:41;19.10;99.90
42201;DHT22;27869;51.442;7.540;2023-09-30T12:46:08;19.10;99.90
42201;DHT22;27869;51.442;7.540;2023-09-30T12:48:35;19.10;99.90
42201;DHT22;27869;51.442;7.540;2023-09-30T12:51:04;19.10;99.90
42201;DHT22;27869;51.442;7.540;2023-09-30T12:53:32;19.10;99.90
42201;DHT22;27869;51.442;7.540;2023-09-30T12:55:59;19.10;99.90
42201;DHT22;27869;51.442;7.540;2023-09-30T12:58:26;19.10;99.90
42201;DHT22;27869;51.442;7.540;2023-09-30T13:00:55;19.10;99.90
42201;DHT22;27869;51.442;7.540;2023-09-30T13:03:22;19.10;99.90
42201;DHT22;27869;51.442;7.540;2023-09-30T13:05:49;19.10;99.90
42201;DHT22;27869;51.442;7.540;2023-09-30T13:08:16;19.10;99.90
42201;DHT22;27869;51.442;7.540;2023-09-30T13:10:44;19.00;99.90
42201;DHT22;27869;51.442;7.540;2023-09-30T13:13:11;19.00;99.90
42201;DHT22;27869;51.442;7.540;2023-09-30T13:15:38;19.00;99.90
42201;DHT22;27869;51.442;7.540;2023-09-30T13:18:07;18.90;99.90
42201;DHT22;27869;51.442;7.540;2023-09-30T13:20:34;18.90;99.90
42201;DHT22;27869;51.442;7.540;2023-09-30T13:23:01;18.90;99.90
42201;DHT22;27869;51.442;7.540;2023-09-30T13:25:28;18.90;99.90
42201;DHT22;27869;51.442;7.540;2023-09-30T13:27:55;18.90;99.90
42201;DHT22;27869;51.442;7.540;2023-09-30T13:30:23;18.90;99.90
42201;DHT22;27869;51.442;7.540;2023-09-30T13:32:50;18.80;99.90
42201;DHT22;27869;51.442;7.540;2023-09-30T13:35:18;18.80;99.90
42201;DHT22;27869;51.442;7.540;2023-09-30T13:37:45;18.80;99.90
42201;DHT22;27869;51.442;7.540;2023-09-30T13:40:12;18.80;99.90
42201;DHT22;27869;51.442;7.540;2023-09-30T13:42:40;18.70;99.90
42201;DHT22;27869;51.442;7.540;2023-09-30T13:45:08;18.80;99.90
42201;DHT22;27869;51.442;7.540;2023-09-30T13:47:35;18.70;99.90
42201;DHT22;27869;51.442;7.540;2023-09-30T13:50:03;18.70;99.90
42201;DHT22;27869;51.442;7.540;2023-09-30T13:52:33;18.70;99.90
42201;DHT22;27869;51.442;7.540;2023-09-30T13:55:00;18.70;99.90
42201;DHT22;27869;51.442;7.540;2023-09-30T13:57:28;18.70;99.90
42201;DHT22;27869;51.442;7.540;2023-09-30T13:59:55;18.70;99.90
42201;DHT22;27869;51.442;7.540;2023-09-30T14:02:22;18.60;99.90
42201;DHT22;27869;51.442;7.540;2023-09-30T14:04:49;18.60;99.90
42201;DHT22;27869;51.442;7.540;2023-09-30T14:07:16;18.60;99.90
42201;DHT22;27869;51.442;7.540;2023-09-30T14:09:45;18.60;99.90
42201;DHT22;27869;51.442;7.540;2023-09-30T14:12:13;18.60;99.90
42201;DHT22;27869;51.442;7.540;2023-09-30T14:14:40;18.50;99.90
42201;DHT22;27869;51.442;7.540;2023-09-30T14:17:07;18.50;99.90
42201;DHT22;27869;51.442;7.540;2023-09-30T14:19:36;18.50;99.90
42201;DHT22;27869;51.442;7.540;2023-09-30T14:22:03;18.50;99.90
42201;DHT22;27869;51.442;7.540;2023-09-30T14:24:30;18.50;99.90
42201;DHT22;27869;51.442;7.540;2023-09-30T14:26:59;18.50;99.90
42201;DHT22;27869;51.442;7.540;2023-09-30T14:29:26;18.50;99.90
42201;DHT22;27869;51.442;7.540;2023-09-30T14:31:53;18.50;99.90
42201;DHT22;27869;51.442;7.540;2023-09-30T14:34:20;18.50;99.90
42201;DHT22;27869;51.442;7.540;2023-09-30T14:36:46;18.50;99.90
42201;DHT22;27869;51.442;7.540;2023-09-30T14:39:13;18.50;99.90
42201;DHT22;27869;51.442;7.540;2023-09-30T14:41:41;18.50;99.90
42201;DHT22;27869;51.442;7.540;2023-09-30T14:44:09;18.50;99.90
42201;DHT22;27869;51.442;7.540;2023-09-30T14:46:37;18.50;99.90
42201;DHT22;27869;51.442;7.540;2023-09-30T14:49:04;18.50;99.90
42201;DHT22;27869;51.442;7.540;2023-09-30T14:51:31;18.50;99.90
42201;DHT22;27869;51.442;7.540;2023-09-30T14:53:58;18.50;99.90
42201;DHT22;27869;51.442;7.540;2023-09-30T14:56:25;18.50;99.90
42201;DHT22;27869;51.442;7.540;2023-09-30T14:58:52;18.40;99.90
42201;DHT22;27869;51.442;7.540;2023-09-30T15:01:21;18.40;99.90
42201;DHT22;27869;51.442;7.540;2023-09-30T15:03:47;18.40;99.90
42201;DHT22;27869;51.442;7.540;2023-09-30T15:06:14;18.40;99.90
42201;DHT22;27869;51.442;7.540;2023-09-30T15:08:41;18.40;99.90
42201;DHT22;27869;51.442;7.540;2023-09-30T15:11:13;18.40;99.90
42201;DHT22;27869;51.442;7.540;2023-09-30T15:13:41;18.40;99.90
42201;DHT22;27869;51.442;7.540;2023-09-30T15:16:17;18.40;99.90
42201;DHT22;27869;51.442;7.540;2023-09-30T15:18:47;18.30;99.90
42201;DHT22;27869;51.442;7.540;2023-09-30T15:21:14;18.20;99.90
42201;DHT22;27869;51.442;7.540;2023-09-30T15:23:41;18.20;99.90
42201;DHT22;27869;51.442;7.540;2023-09-30T15:26:09;18.20;99.90
42201;DHT22;27869;51.442;7.540;2023-09-30T15:28:36;18.10;99.90
42201;DHT22;27869;51.442;7.540;2023-09-30T15:31:03;18.10;99.90
42201;DHT22;27869;51.442;7.540;2023-09-30T15:33:31;18.00;99.90
42201;DHT22;27869;51.442;7.540;2023-09-30T15:36:00;17.90;99.90
42201;DHT22;27869;51.442;7.540;2023-09-30T15:38:34;17.80;99.90
42201;DHT22;27869;51.442;7.540;2023-09-30T15:41:01;17.80;99.90